Time;durP1;ratioP1;P1;durP2;ratioP2;P2;SDS_P1;SDS_P2;PMS_P1;PMS_P2;Temp;Humidity;BMP_temperature;BMP_pressure;BME280_temperature;BME280_humidity;BME280_pressure;Samples;Min_cycle;Max_cycle;Signal;HPM_P1;HPM_P2
2023/03/23 00:02:24;;;;;;;2.93;2.63;;;14.10;93.40;;;;;;5008394;28;22263;-70
2023/03/23 00:04:50;;;;;;;2.43;2.20;;;14.10;93.60;;;;;;5013501;28;20519;-70
2023/03/23 00:07:20;;;;;;;2.10;1.90;;;14.10;94.00;;;;;;5011568;28;20825;-71
2023/03/23 00:09:53;;;;;;;2.63;2.10;;;14.10;94.20;;;;;;5006469;28;20229;-70
2023/03/23 00:12:34;;;;;;;1.97;1.87;;;14.10;94.60;;;;;;5011626;28;20867;-70
2023/03/23 00:15:12;;;;;;;1.83;1.73;;;14.10;95.10;;;;;;5008646;28;20437;-70
2023/03/23 00:17:40;;;;;;;2.37;2.17;;;14.00;95.20;;;;;;5014938;28;20433;-70
2023/03/23 00:20:06;;;;;;;2.03;1.90;;;14.00;95.80;;;;;;5011202;28;20982;-70
2023/03/23 00:22:37;;;;;;;1.80;1.70;;;14.00;96.30;;;;;;5011686;28;20441;-70
2023/03/23 00:25:03;;;;;;;1.87;1.77;;;14.00;95.90;;;;;;5016347;28;20536;-70
2023/03/23 00:27:29;;;;;;;4.03;2.03;;;14.00;96.30;;;;;;5015714;28;20458;-69
2023/03/23 00:29:55;;;;;;;2.00;1.90;;;14.00;96.50;;;;;;5013955;28;20844;-70
2023/03/23 00:32:26;;;;;;;3.67;2.00;;;13.90;96.70;;;;;;5010119;28;20601;-70
2023/03/23 00:34:53;;;;;;;4.07;1.80;;;13.80;97.30;;;;;;5014405;28;20520;-70
2023/03/23 00:37:19;;;;;;;2.40;2.20;;;13.70;97.60;;;;;;5012192;28;20441;-70
2023/03/23 00:39:46;;;;;;;2.33;2.13;;;13.60;98.00;;;;;;5015681;28;20956;-70
2023/03/23 00:42:13;;;;;;;2.43;2.20;;;13.60;98.50;;;;;;5014143;28;20826;-70
2023/03/23 00:44:39;;;;;;;2.40;2.20;;;13.50;98.40;;;;;;5012782;28;20445;-70
2023/03/23 00:47:06;;;;;;;2.60;2.20;;;13.40;98.20;;;;;;5011578;28;20951;-70
2023/03/23 00:49:34;;;;;;;4.97;1.90;;;13.30;99.00;;;;;;5013158;28;20785;-70
2023/03/23 00:52:00;;;;;;;4.57;2.40;;;13.30;99.10;;;;;;5013058;28;20499;-70
2023/03/23 00:54:26;;;;;;;2.10;1.90;;;13.20;99.60;;;;;;5012576;28;20452;-70
2023/03/23 00:56:52;;;;;;;2.70;2.50;;;13.20;99.80;;;;;;5016603;28;20441;-70
2023/03/23 00:59:18;;;;;;;4.30;2.23;;;13.20;99.90;;;;;;5011544;28;20492;-70
2023/03/23 01:01:44;;;;;;;2.30;2.10;;;13.20;99.90;;;;;;5013890;28;20461;-69
2023/03/23 01:04:12;;;;;;;3.50;2.30;;;13.20;99.90;;;;;;5013764;28;21201;-70
2023/03/23 01:06:39;;;;;;;3.67;2.53;;;13.20;99.90;;;;;;5013184;28;20189;-70
2023/03/23 01:09:10;;;;;;;3.07;2.37;;;13.20;99.90;;;;;;5010233;28;20468;-70
2023/03/23 01:11:37;;;;;;;2.90;2.60;;;13.10;99.90;;;;;;5009133;28;20454;-70
2023/03/23 01:14:03;;;;;;;3.77;2.80;;;13.20;99.90;;;;;;5012157;28;20438;-70
2023/03/23 01:16:29;;;;;;;3.10;2.53;;;13.20;99.90;;;;;;5013747;28;20462;-69
2023/03/23 01:18:54;;;;;;;2.50;2.30;;;13.10;99.90;;;;;;5011552;28;20951;-70
2023/03/23 01:21:21;;;;;;;2.37;2.17;;;13.10;99.90;;;;;;5011872;28;20202;-70
2023/03/23 01:23:47;;;;;;;2.40;2.20;;;13.10;99.90;;;;;;5012584;28;20186;-70
2023/03/23 01:26:16;;;;;;;2.37;2.00;;;13.20;99.90;;;;;;5012961;28;20440;-70
2023/03/23 01:28:43;;;;;;;2.77;2.20;;;13.20;99.90;;;;;;5010206;28;20221;-70
2023/03/23 01:31:12;;;;;;;2.60;2.40;;;13.10;99.90;;;;;;5011754;28;20462;-69
2023/03/23 01:33:39;;;;;;;4.43;2.10;;;13.10;99.90;;;;;;5013022;28;20433;-69
2023/03/23 01:36:07;;;;;;;2.67;2.47;;;13.10;99.90;;;;;;5013285;28;20433;-70
2023/03/23 01:38:34;;;;;;;2.63;2.07;;;13.10;99.90;;;;;;5012894;28;20442;-70
2023/03/23 01:41:01;;;;;;;2.97;2.30;;;13.00;99.90;;;;;;5011563;28;20838;-69
2023/03/23 01:43:27;;;;;;;2.40;2.20;;;13.00;99.90;;;;;;5011296;28;20473;-70
2023/03/23 01:45:53;;;;;;;2.83;2.30;;;13.00;99.90;;;;;;5011163;28;20474;-70
2023/03/23 01:48:23;;;;;;;2.27;2.07;;;13.00;99.90;;;;;;5011313;28;20238;-70
2023/03/23 01:50:56;;;;;;;2.90;2.20;;;13.00;99.90;;;;;;5008603;28;20902;-70
2023/03/23 01:53:26;;;;;;;2.33;2.13;;;13.00;99.90;;;;;;5004885;28;20433;-69
2023/03/23 01:55:53;;;;;;;2.00;1.90;;;13.00;99.90;;;;;;5011718;28;20496;-70
2023/03/23 01:58:26;;;;;;;2.27;2.03;;;13.00;99.90;;;;;;5010578;28;20496;-70
2023/03/23 02:00:55;;;;;;;2.40;2.20;;;13.10;99.90;;;;;;5012126;28;20469;-70
2023/03/23 02:03:23;;;;;;;2.93;2.63;;;13.10;99.90;;;;;;5005185;28;20519;-70
2023/03/23 02:05:49;;;;;;;4.27;2.60;;;13.10;99.90;;;;;;5010893;28;20529;-70
2023/03/23 02:08:18;;;;;;;2.70;2.13;;;13.10;99.90;;;;;;5009480;28;20473;-70
2023/03/23 02:10:43;;;;;;;2.20;2.10;;;13.10;99.90;;;;;;5012110;28;20967;-69
2023/03/23 02:13:11;;;;;;;2.90;2.70;;;13.10;99.90;;;;;;5012229;28;20433;-69
2023/03/23 02:15:45;;;;;;;2.57;2.37;;;13.10;99.90;;;;;;5009136;28;20229;-70
2023/03/23 02:18:28;;;;;;;2.60;2.30;;;13.10;99.90;;;;;;5015981;28;20443;-70
2023/03/23 02:21:27;;;;;;;2.80;2.50;;;13.10;99.90;;;;;;5010234;28;20457;-70
2023/03/23 02:24:18;;;;;;;2.87;2.10;;;13.10;99.90;;;;;;5008234;28;20473;-69
2023/03/23 02:27:02;;;;;;;2.60;2.40;;;13.10;99.90;;;;;;5012338;28;20434;-69
2023/03/23 02:30:08;;;;;;;2.50;2.33;;;13.10;99.90;;;;;;5004648;28;20529;-70
2023/03/23 02:33:11;;;;;;;4.20;3.80;;;13.10;99.90;;;;;;5009133;28;20473;-70
2023/03/23 02:35:46;;;;;;;2.40;2.13;;;13.20;99.90;;;;;;5005860;28;20480;-70
2023/03/23 02:38:20;;;;;;;3.27;2.20;;;13.20;99.90;;;;;;5011713;28;20445;-70
2023/03/23 02:40:49;;;;;;;2.00;1.90;;;13.20;99.90;;;;;;5010828;28;20787;-70
2023/03/23 02:43:18;;;;;;;3.97;3.63;;;13.20;99.90;;;;;;5011816;28;20831;-70
2023/03/23 02:45:45;;;;;;;2.97;2.77;;;13.20;99.90;;;;;;5011838;28;20487;-70
2023/03/23 02:48:14;;;;;;;3.00;2.57;;;13.10;99.90;;;;;;5009890;28;20520;-70
2023/03/23 02:50:44;;;;;;;2.40;2.20;;;13.10;99.90;;;;;;5011254;28;20469;-70
2023/03/23 02:53:12;;;;;;;2.10;1.90;;;13.10;99.90;;;;;;5011439;28;20434;-70
2023/03/23 02:55:41;;;;;;;2.60;2.40;;;13.10;99.90;;;;;;5011741;28;20434;-70
2023/03/23 02:58:09;;;;;;;3.03;2.37;;;13.10;99.90;;;;;;5011346;28;20449;-70
2023/03/23 03:00:35;;;;;;;2.90;2.67;;;13.10;99.90;;;;;;5010549;28;20464;-70
2023/03/23 03:03:02;;;;;;;2.27;2.13;;;13.10;99.90;;;;;;5009267;28;20971;-69
2023/03/23 03:05:54;;;;;;;3.63;3.00;;;13.00;99.90;;;;;;5011315;28;20175;-70
2023/03/23 03:08:54;;;;;;;2.10;1.90;;;13.00;99.90;;;;;;5010220;28;20501;-70
2023/03/23 03:11:27;;;;;;;2.60;2.03;;;13.00;99.90;;;;;;5008298;28;20454;-70
2023/03/23 03:14:00;;;;;;;3.53;2.40;;;13.00;99.90;;;;;;5011075;28;20438;-69
2023/03/23 03:16:35;;;;;;;3.07;2.20;;;13.00;99.90;;;;;;5011698;28;20436;-70
2023/03/23 03:19:11;;;;;;;2.80;2.60;;;13.00;99.90;;;;;;5013073;28;20935;-70
2023/03/23 03:21:41;;;;;;;2.30;2.10;;;13.00;99.90;;;;;;5011727;28;20453;-70
2023/03/23 03:24:10;;;;;;;2.40;2.20;;;13.10;99.90;;;;;;5008923;28;20792;-70
2023/03/23 03:26:45;;;;;;;2.53;2.23;;;13.10;99.90;;;;;;5005954;28;20491;-70
2023/03/23 03:29:11;;;;;;;3.20;1.90;;;13.20;99.90;;;;;;5009001;28;20460;-69
2023/03/23 03:31:39;;;;;;;3.20;1.90;;;13.20;99.90;;;;;;5011562;28;20798;-70
2023/03/23 03:34:06;;;;;;;3.77;2.00;;;13.20;99.90;;;;;;5011446;28;20860;-69
2023/03/23 03:36:34;;;;;;;2.30;2.17;;;13.30;99.90;;;;;;5011656;28;20437;-69
2023/03/23 03:39:07;;;;;;;2.50;2.30;;;13.30;99.90;;;;;;5009703;28;20950;-70
2023/03/23 03:41:35;;;;;;;2.30;2.10;;;13.30;99.90;;;;;;5010732;28;20484;-69
2023/03/23 03:44:01;;;;;;;3.03;2.07;;;13.30;99.90;;;;;;5011354;28;20444;-70
2023/03/23 03:46:29;;;;;;;2.63;2.43;;;13.30;99.90;;;;;;5011845;28;20939;-70
2023/03/23 03:48:56;;;;;;;4.90;2.20;;;13.40;99.90;;;;;;5014130;28;20497;-70
2023/03/23 03:51:22;;;;;;;2.07;1.97;;;13.40;99.90;;;;;;5013418;28;20497;-70
2023/03/23 03:53:47;;;;;;;2.77;2.57;;;13.30;99.90;;;;;;5012827;28;20850;-70
2023/03/23 03:56:13;;;;;;;2.13;1.93;;;13.30;99.90;;;;;;5014869;28;20186;-70
2023/03/23 03:58:42;;;;;;;3.03;2.30;;;13.30;99.90;;;;;;5014324;28;20186;-70
2023/03/23 04:01:09;;;;;;;2.53;2.33;;;13.30;99.90;;;;;;5012118;28;20453;-69
2023/03/23 04:03:36;;;;;;;3.23;2.10;;;13.20;99.90;;;;;;5014647;28;20491;-70
2023/03/23 04:06:02;;;;;;;2.47;2.27;;;13.30;99.90;;;;;;5014091;28;20437;-70
2023/03/23 04:08:28;;;;;;;2.33;2.13;;;13.20;99.90;;;;;;5013320;28;20517;-70
2023/03/23 04:10:54;;;;;;;3.17;1.87;;;13.20;99.90;;;;;;5013185;28;20463;-70
2023/03/23 04:13:21;;;;;;;2.30;2.10;;;13.20;99.90;;;;;;5013924;28;20553;-69
2023/03/23 04:15:47;;;;;;;2.77;2.43;;;13.20;99.90;;;;;;5014273;28;20975;-70
2023/03/23 04:18:14;;;;;;;4.87;2.40;;;13.20;99.90;;;;;;5014084;28;20448;-70
2023/03/23 04:20:41;;;;;;;2.80;2.60;;;13.30;99.90;;;;;;5015280;28;20850;-69
2023/03/23 04:23:07;;;;;;;6.00;2.40;;;13.30;99.90;;;;;;5013750;28;20965;-70
2023/03/23 04:25:32;;;;;;;2.03;1.93;;;13.40;99.90;;;;;;5014715;28;20437;-70
2023/03/23 04:28:00;;;;;;;2.43;2.23;;;13.40;99.90;;;;;;5013982;28;20249;-70
2023/03/23 04:30:27;;;;;;;2.40;2.30;;;13.40;99.90;;;;;;5005958;28;20190;-70
2023/03/23 04:32:54;;;;;;;5.50;2.17;;;13.40;99.90;;;;;;5014391;28;20457;-69
2023/03/23 04:35:25;;;;;;;3.83;2.83;;;13.50;99.90;;;;;;5010500;28;20437;-70
2023/03/23 04:37:51;;;;;;;2.10;1.90;;;13.40;99.90;;;;;;5012384;28;20436;-70
2023/03/23 04:40:18;;;;;;;2.63;2.20;;;13.40;99.90;;;;;;5012328;28;20457;-69
2023/03/23 04:42:48;;;;;;;1.63;1.53;;;13.40;99.90;;;;;;5014537;28;20836;-70
2023/03/23 04:45:22;;;;;;;2.93;2.00;;;13.40;99.90;;;;;;5012441;28;20438;-69
2023/03/23 04:47:57;;;;;;;2.47;2.27;;;13.40;99.90;;;;;;5013726;28;20466;-69
2023/03/23 04:50:26;;;;;;;2.50;1.90;;;13.40;99.90;;;;;;5013941;28;20456;-69
2023/03/23 04:52:53;;;;;;;2.93;2.13;;;13.40;99.90;;;;;;5012577;28;20909;-69
2023/03/23 04:55:19;;;;;;;2.40;1.90;;;13.40;99.90;;;;;;5012841;28;20472;-69
2023/03/23 04:57:46;;;;;;;2.13;1.93;;;13.40;99.90;;;;;;5012808;28;20441;-69
2023/03/23 05:00:14;;;;;;;2.40;2.20;;;13.50;99.90;;;;;;5012417;28;20445;-69
2023/03/23 05:02:40;;;;;;;3.30;2.60;;;13.50;99.90;;;;;;5012428;28;20935;-69
2023/03/23 05:05:13;;;;;;;3.00;2.80;;;13.60;99.90;;;;;;5014120;28;20468;-69
2023/03/23 05:07:39;;;;;;;2.00;1.90;;;13.60;99.90;;;;;;5011886;28;20553;-69
2023/03/23 05:10:07;;;;;;;2.63;2.23;;;13.60;99.90;;;;;;5010695;28;21021;-69
2023/03/23 05:12:33;;;;;;;2.60;2.27;;;13.60;99.90;;;;;;5013748;28;20430;-69
2023/03/23 05:14:59;;;;;;;4.77;2.20;;;13.60;99.90;;;;;;5011663;28;20436;-69
2023/03/23 05:17:25;;;;;;;2.17;2.07;;;13.60;99.90;;;;;;5014614;28;20191;-69
2023/03/23 05:19:51;;;;;;;7.73;2.60;;;13.60;99.90;;;;;;5015244;28;20865;-69
2023/03/23 05:22:20;;;;;;;2.43;2.20;;;13.70;99.90;;;;;;5013489;28;20851;-69
2023/03/23 05:24:46;;;;;;;4.53;2.30;;;13.60;99.90;;;;;;5013582;28;20787;-69
2023/03/23 05:27:14;;;;;;;2.80;2.30;;;13.60;99.90;;;;;;5011924;28;20522;-69
2023/03/23 05:29:40;;;;;;;4.33;2.10;;;13.70;99.90;;;;;;5010976;28;20433;-69
2023/03/23 05:32:07;;;;;;;2.73;2.53;;;13.70;99.90;;;;;;5014785;28;20449;-69
2023/03/23 05:34:33;;;;;;;2.37;2.00;;;13.70;99.90;;;;;;5012942;28;20445;-69
2023/03/23 05:37:00;;;;;;;2.70;2.00;;;13.70;99.90;;;;;;5013769;28;20418;-69
2023/03/23 05:39:26;;;;;;;2.87;2.47;;;13.70;99.90;;;;;;5010722;28;20450;-69
2023/03/23 05:41:52;;;;;;;2.20;2.10;;;13.70;99.90;;;;;;5012982;28;20462;-69
2023/03/23 05:44:18;;;;;;;2.33;2.20;;;13.80;99.90;;;;;;5011286;28;20433;-69
2023/03/23 05:46:44;;;;;;;3.20;2.33;;;13.80;99.90;;;;;;5011398;28;20652;-69
2023/03/23 05:49:10;;;;;;;2.33;2.13;;;13.90;99.90;;;;;;5011797;28;20504;-69
2023/03/23 05:51:35;;;;;;;2.47;2.27;;;13.90;99.90;;;;;;5009598;28;20230;-70
2023/03/23 05:54:01;;;;;;;2.40;2.20;;;13.80;99.90;;;;;;5012178;28;20171;-69
2023/03/23 05:56:30;;;;;;;2.40;2.10;;;13.80;99.90;;;;;;5012195;28;20183;-69
2023/03/23 05:58:55;;;;;;;2.33;2.17;;;13.90;99.90;;;;;;5011678;28;20487;-69
2023/03/23 06:01:21;;;;;;;2.80;2.40;;;13.90;99.90;;;;;;5009847;28;20457;-69
2023/03/23 06:03:50;;;;;;;1.93;1.70;;;13.90;99.90;;;;;;5010098;28;20727;-69
2023/03/23 06:06:16;;;;;;;2.10;1.90;;;14.00;99.90;;;;;;5011522;28;20186;-69
2023/03/23 06:08:42;;;;;;;3.50;2.37;;;14.00;99.90;;;;;;5010435;28;20457;-69
2023/03/23 06:11:08;;;;;;;3.00;1.97;;;14.00;99.90;;;;;;5010847;28;20202;-69
2023/03/23 06:13:33;;;;;;;3.93;2.77;;;14.10;99.90;;;;;;5012202;28;20441;-70
2023/03/23 06:15:59;;;;;;;4.30;2.00;;;14.10;99.90;;;;;;5009756;28;20186;-69
2023/03/23 06:18:25;;;;;;;2.30;2.10;;;14.10;99.90;;;;;;5010894;28;20624;-70
2023/03/23 06:20:51;;;;;;;3.70;2.90;;;14.20;99.90;;;;;;5012467;28;20738;-69
2023/03/23 06:23:17;;;;;;;2.77;2.57;;;14.20;99.90;;;;;;5008153;28;20171;-70
2023/03/23 06:25:43;;;;;;;3.03;2.43;;;14.20;99.90;;;;;;5009075;28;20927;-70
2023/03/23 06:28:09;;;;;;;5.20;2.57;;;14.20;99.90;;;;;;5008827;28;20208;-70
2023/03/23 06:30:36;;;;;;;3.10;2.87;;;14.30;99.90;;;;;;5011264;28;20445;-69
2023/03/23 06:33:05;;;;;;;4.00;2.23;;;14.20;99.90;;;;;;5010167;28;20444;-70
2023/03/23 06:35:33;;;;;;;11.87;3.63;;;14.20;99.90;;;;;;5010231;28;20874;-69
2023/03/23 06:38:01;;;;;;;5.57;2.60;;;14.20;99.90;;;;;;5011548;28;20504;-69
2023/03/23 06:40:28;;;;;;;5.67;2.77;;;14.30;99.90;;;;;;5012091;28;20489;-69
2023/03/23 06:42:54;;;;;;;6.07;2.70;;;14.30;99.90;;;;;;5013814;28;20436;-69
2023/03/23 06:45:19;;;;;;;6.13;3.40;;;14.30;99.90;;;;;;5010948;28;20433;-69
2023/03/23 06:47:48;;;;;;;4.13;3.10;;;14.30;99.90;;;;;;5011918;28;20213;-69
2023/03/23 06:50:15;;;;;;;3.70;3.10;;;14.30;99.90;;;;;;5009217;28;20239;-69
2023/03/23 06:52:40;;;;;;;3.93;2.40;;;14.30;99.90;;;;;;5008595;28;20537;-69
2023/03/23 06:55:06;;;;;;;4.43;3.13;;;14.40;99.90;;;;;;5009748;28;20529;-70
2023/03/23 06:57:32;;;;;;;5.43;2.60;;;14.50;99.90;;;;;;5011304;28;20270;-69
2023/03/23 06:59:58;;;;;;;5.33;2.70;;;14.60;99.90;;;;;;5009808;28;20438;-69
2023/03/23 07:02:23;;;;;;;7.40;2.70;;;14.70;99.90;;;;;;5011076;28;20174;-70
2023/03/23 07:04:49;;;;;;;3.00;2.73;;;14.80;99.90;;;;;;5011265;28;20813;-69
2023/03/23 07:07:18;;;;;;;2.67;2.37;;;14.90;99.90;;;;;;5011720;28;20185;-69
2023/03/23 07:09:44;;;;;;;5.87;2.73;;;14.90;99.90;;;;;;5011493;28;20175;-69
2023/03/23 07:12:09;;;;;;;2.33;2.13;;;14.90;99.90;;;;;;5011315;28;20461;-69
2023/03/23 07:14:36;;;;;;;2.83;2.40;;;14.90;99.90;;;;;;5011666;28;20541;-69
2023/03/23 07:17:03;;;;;;;4.00;2.70;;;14.90;99.90;;;;;;5009658;28;20179;-69
2023/03/23 07:19:28;;;;;;;2.83;2.40;;;14.90;99.90;;;;;;5009757;28;20441;-69
2023/03/23 07:21:54;;;;;;;3.60;2.77;;;14.90;99.90;;;;;;5010936;28;20461;-69
2023/03/23 07:24:20;;;;;;;3.30;2.87;;;14.90;99.90;;;;;;5011360;28;20194;-70
2023/03/23 07:26:45;;;;;;;12.07;4.27;;;14.90;99.90;;;;;;5007925;28;20178;-71
2023/03/23 07:29:11;;;;;;;3.80;2.40;;;14.80;99.90;;;;;;5007401;28;20272;-69
2023/03/23 07:31:36;;;;;;;5.43;2.67;;;14.80;99.90;;;;;;5009623;28;20206;-69
2023/03/23 07:34:04;;;;;;;3.10;2.80;;;14.70;99.90;;;;;;5012125;28;20210;-70
2023/03/23 07:36:30;;;;;;;2.20;2.00;;;14.70;99.90;;;;;;5015235;28;20179;-69
2023/03/23 07:38:56;;;;;;;3.33;3.13;;;14.70;99.90;;;;;;5008534;28;20441;-69
2023/03/23 07:41:22;;;;;;;3.40;3.03;;;14.70;99.90;;;;;;5011273;28;20457;-70
2023/03/23 07:43:47;;;;;;;2.37;2.20;;;14.70;99.90;;;;;;5010092;28;20543;-70
2023/03/23 07:46:13;;;;;;;2.77;2.50;;;14.80;99.90;;;;;;5010255;28;20659;-69
2023/03/23 07:48:39;;;;;;;2.70;2.50;;;14.80;99.90;;;;;;5008761;28;20214;-70
2023/03/23 07:51:05;;;;;;;2.37;2.17;;;14.90;99.90;;;;;;5007951;28;20588;-70
2023/03/23 07:53:31;;;;;;;3.40;3.10;;;15.00;99.90;;;;;;5010226;28;20461;-70
2023/03/23 07:55:57;;;;;;;2.70;2.47;;;15.20;99.90;;;;;;5011295;28;20460;-71
2023/03/23 07:58:23;;;;;;;2.73;2.53;;;15.40;99.90;;;;;;5009135;28;20441;-71
2023/03/23 08:00:48;;;;;;;2.90;2.70;;;15.50;99.90;;;;;;5009080;28;20210;-69
2023/03/23 08:03:15;;;;;;;4.00;3.00;;;15.60;99.90;;;;;;5008701;28;20536;-73
2023/03/23 08:05:42;;;;;;;2.70;2.50;;;15.80;99.90;;;;;;5013850;28;20198;-71
2023/03/23 08:08:09;;;;;;;5.37;3.13;;;15.90;99.90;;;;;;5009988;28;20605;-70
2023/03/23 08:10:35;;;;;;;2.50;2.30;;;16.00;99.90;;;;;;5010639;28;20485;-71
2023/03/23 08:13:01;;;;;;;2.57;2.37;;;15.90;99.90;;;;;;5007537;28;20463;-71
2023/03/23 08:15:27;;;;;;;3.00;2.63;;;15.90;99.90;;;;;;5010622;28;20434;-71
2023/03/23 08:17:52;;;;;;;5.43;3.33;;;15.90;99.90;;;;;;5003166;28;20443;-71
2023/03/23 08:20:19;;;;;;;4.83;2.70;;;15.70;99.90;;;;;;5009878;28;20656;-72
2023/03/23 08:22:50;;;;;;;3.47;3.17;;;15.60;99.90;;;;;;5010518;28;20182;-72
2023/03/23 08:25:17;;;;;;;3.40;3.10;;;15.80;99.90;;;;;;5011722;28;20428;-71
2023/03/23 08:27:43;;;;;;;3.20;2.90;;;15.90;99.90;;;;;;5011601;28;20453;-70
2023/03/23 08:30:12;;;;;;;3.60;3.30;;;16.10;99.90;;;;;;5009360;28;20438;-70
2023/03/23 08:32:39;;;;;;;2.80;2.60;;;16.20;99.90;;;;;;5012051;28;20810;-71
2023/03/23 08:35:05;;;;;;;4.87;3.07;;;16.20;99.90;;;;;;5015141;28;20417;-71
2023/03/23 08:37:31;;;;;;;3.10;2.80;;;16.20;99.90;;;;;;5017637;28;20483;-71
2023/03/23 08:39:59;;;;;;;4.77;2.77;;;16.00;99.90;;;;;;5029380;28;20531;-71
2023/03/23 08:42:25;;;;;;;3.00;2.63;;;16.10;99.90;;;;;;5013812;28;20556;-71
2023/03/23 08:44:51;;;;;;;2.90;2.57;;;16.10;99.90;;;;;;5014984;28;20449;-71
2023/03/23 08:47:17;;;;;;;4.10;3.60;;;16.00;99.90;;;;;;5014836;28;20425;-71
2023/03/23 08:49:45;;;;;;;3.60;3.30;;;16.00;99.90;;;;;;5014073;28;20414;-72
2023/03/23 08:52:11;;;;;;;3.13;2.83;;;15.90;99.90;;;;;;5013784;28;20680;-72
2023/03/23 08:54:37;;;;;;;3.13;2.93;;;16.00;99.90;;;;;;5014978;28;20418;-71
2023/03/23 08:57:03;;;;;;;3.13;2.90;;;16.10;99.90;;;;;;5013420;28;20932;-71
2023/03/23 08:59:29;;;;;;;2.80;2.60;;;16.00;99.90;;;;;;5012742;28;20426;-71
2023/03/23 09:01:54;;;;;;;5.27;2.63;;;16.10;99.90;;;;;;5013874;28;20207;-71
2023/03/23 09:04:20;;;;;;;3.33;2.70;;;16.20;99.90;;;;;;5014532;28;20178;-72
2023/03/23 09:06:46;;;;;;;3.83;2.90;;;16.30;99.90;;;;;;5013289;28;20206;-72
2023/03/23 09:09:12;;;;;;;5.23;2.93;;;16.40;99.90;;;;;;5013889;28;20457;-71
2023/03/23 09:11:38;;;;;;;3.23;2.93;;;16.20;99.90;;;;;;5012892;28;20220;-70
2023/03/23 09:14:06;;;;;;;3.40;3.10;;;16.20;99.90;;;;;;5014141;28;20806;-70
2023/03/23 09:16:32;;;;;;;3.93;3.63;;;16.50;99.90;;;;;;5014289;28;20424;-71
2023/03/23 09:18:58;;;;;;;3.80;2.70;;;16.60;99.90;;;;;;5013579;28;20939;-71
2023/03/23 09:21:25;;;;;;;4.37;3.67;;;16.80;99.90;;;;;;5014305;28;20445;-71
2023/03/23 09:23:51;;;;;;;3.23;2.80;;;16.90;99.90;;;;;;5013201;28;20549;-70
2023/03/23 09:26:17;;;;;;;6.70;2.50;;;17.10;99.90;;;;;;5012782;28;20422;-71
2023/03/23 09:28:44;;;;;;;2.83;2.63;;;17.00;99.90;;;;;;5013424;28;20894;-70
2023/03/23 09:31:10;;;;;;;2.80;2.60;;;17.10;99.90;;;;;;5014044;28;20214;-71
2023/03/23 09:33:37;;;;;;;3.40;2.10;;;17.20;99.90;;;;;;5013645;28;20434;-70
2023/03/23 09:36:04;;;;;;;2.50;2.23;;;17.10;99.90;;;;;;5013993;28;20501;-71
2023/03/23 09:38:33;;;;;;;3.90;2.90;;;16.90;99.90;;;;;;5013264;28;20931;-72
2023/03/23 09:41:20;;;;;;;6.03;2.50;;;16.70;99.90;;;;;;5013906;28;20968;-71
2023/03/23 09:43:48;;;;;;;3.13;2.53;;;16.70;99.90;;;;;;5013260;28;20966;-71
2023/03/23 09:46:44;;;;;;;2.50;2.30;;;16.40;99.90;;;;;;5013000;28;20910;-71
2023/03/23 09:49:29;;;;;;;3.47;2.23;;;16.20;99.90;;;;;;5013014;28;20457;-71
2023/03/23 09:52:00;;;;;;;2.93;2.63;;;16.10;99.90;;;;;;5037007;23;20531;-68
2023/03/23 09:54:36;;;;;;;4.27;2.37;;;16.10;99.90;;;;;;5006148;28;20808;-68
2023/03/23 09:57:03;;;;;;;2.93;2.50;;;16.10;99.90;;;;;;5012766;28;20832;-68
2023/03/23 09:59:32;;;;;;;3.00;2.43;;;16.20;99.90;;;;;;5009071;28;20504;-69
2023/03/23 10:02:13;;;;;;;3.07;2.83;;;16.20;99.90;;;;;;5010712;28;20495;-71
2023/03/23 10:04:50;;;;;;;2.33;2.00;;;16.20;99.90;;;;;;5013680;28;20428;-69
2023/03/23 10:07:25;;;;;;;3.20;2.93;;;16.50;99.90;;;;;;5003188;28;20587;-71
2023/03/23 10:09:57;;;;;;;2.50;2.30;;;16.70;99.90;;;;;;4992316;28;20460;-70
2023/03/23 10:12:51;;;;;;;2.67;2.47;;;17.30;99.90;;;;;;4989834;28;20899;-70
2023/03/23 10:15:27;;;;;;;3.40;3.10;;;18.00;99.90;;;;;;5004086;28;20428;-71
2023/03/23 10:18:08;;;;;;;6.20;3.70;;;18.50;99.90;;;;;;5004163;28;20430;-71
2023/03/23 10:20:51;;;;;;;2.40;2.20;;;19.00;99.80;;;;;;4995989;28;20804;-71
2023/03/23 10:23:20;;;;;;;2.73;2.50;;;19.30;98.00;;;;;;5000631;28;20496;-71
2023/03/23 10:26:00;;;;;;;3.03;2.77;;;19.50;97.20;;;;;;5003184;28;20448;-70
2023/03/23 10:28:38;;;;;;;3.87;2.90;;;18.70;98.50;;;;;;5000869;28;20512;-71
2023/03/23 10:31:08;;;;;;;2.67;2.47;;;18.00;99.90;;;;;;4998915;28;20464;-71
2023/03/23 10:33:42;;;;;;;2.50;2.30;;;17.80;99.90;;;;;;5002200;28;20437;-72
2023/03/23 10:36:35;;;;;;;3.53;2.40;;;17.80;99.90;;;;;;5003252;28;20810;-71
2023/03/23 10:39:09;;;;;;;2.70;2.50;;;17.70;99.90;;;;;;4999235;28;20431;-71
2023/03/23 10:41:34;;;;;;;2.47;2.20;;;17.40;99.90;;;;;;4999016;28;20450;-71
2023/03/23 10:44:01;;;;;;;2.57;2.37;;;17.70;99.90;;;;;;4992310;28;20518;-71
2023/03/23 10:46:36;;;;;;;2.70;2.50;;;17.80;99.90;;;;;;4991937;28;20183;-71
2023/03/23 10:49:11;;;;;;;2.90;2.40;;;18.00;99.90;;;;;;5000514;28;20464;-68
2023/03/23 10:51:41;;;;;;;3.27;2.47;;;18.40;99.90;;;;;;4999703;28;20466;-71
2023/03/23 10:54:08;;;;;;;4.80;2.83;;;18.80;99.90;;;;;;5001713;28;20874;-69
2023/03/23 10:56:42;;;;;;;2.70;2.50;;;19.50;98.50;;;;;;5002874;28;20441;-69
2023/03/23 10:59:34;;;;;;;3.13;2.50;;;19.90;96.30;;;;;;4999891;28;20179;-72
2023/03/23 11:02:05;;;;;;;4.00;2.80;;;19.90;96.20;;;;;;5001484;28;20551;-72
2023/03/23 11:04:32;;;;;;;2.67;2.47;;;20.20;95.40;;;;;;4993108;28;20422;-72
2023/03/23 11:07:01;;;;;;;4.27;2.83;;;20.20;95.40;;;;;;4988784;28;20494;-71
2023/03/23 11:09:38;;;;;;;2.80;2.60;;;20.00;96.20;;;;;;4994556;28;20548;-70
2023/03/23 11:12:04;;;;;;;3.50;2.77;;;19.60;96.50;;;;;;5003144;28;20454;-69
2023/03/23 11:14:32;;;;;;;3.03;2.80;;;19.10;98.00;;;;;;4992845;28;20430;-71
2023/03/23 11:17:01;;;;;;;2.80;2.60;;;18.70;99.90;;;;;;4992774;28;20172;-71
2023/03/23 11:19:32;;;;;;;2.90;2.70;;;18.70;99.90;;;;;;4987057;28;20438;-71
2023/03/23 11:22:14;;;;;;;2.90;2.33;;;18.50;99.80;;;;;;4992500;28;20808;-71
2023/03/23 11:24:46;;;;;;;3.03;2.73;;;18.20;99.90;;;;;;4992715;28;20791;-71
2023/03/23 11:27:13;;;;;;;2.80;2.60;;;18.00;99.90;;;;;;4992702;28;20870;-71
2023/03/23 11:29:49;;;;;;;2.87;2.67;;;17.60;99.90;;;;;;4992020;28;20861;-71
2023/03/23 11:32:17;;;;;;;3.87;3.33;;;17.40;99.90;;;;;;4990126;28;20458;-71
2023/03/23 11:34:48;;;;;;;2.83;2.60;;;17.50;99.90;;;;;;4992605;28;20430;-71
2023/03/23 11:37:42;;;;;;;2.77;2.57;;;17.30;99.90;;;;;;4992654;28;20418;-71
2023/03/23 11:40:11;;;;;;;3.90;3.30;;;17.70;99.90;;;;;;4989599;28;20437;-71
2023/03/23 11:42:59;;;;;;;3.73;3.40;;;18.20;99.90;;;;;;4991614;28;20786;-72
2023/03/23 11:45:30;;;;;;;4.60;3.10;;;18.50;99.90;;;;;;4984988;28;20454;-71
2023/03/23 11:48:08;;;;;;;2.80;2.50;;;18.60;99.90;;;;;;4992471;28;20630;-71
2023/03/23 11:50:54;;;;;;;3.23;2.87;;;18.80;99.90;;;;;;4991867;28;20478;-71
2023/03/23 11:53:44;;;;;;;3.27;3.07;;;18.80;99.90;;;;;;4992438;28;20502;-72
2023/03/23 11:56:16;;;;;;;4.20;2.50;;;18.90;99.90;;;;;;4990328;28;20450;-71
2023/03/23 11:58:41;;;;;;;4.03;2.40;;;19.00;98.30;;;;;;4993621;28;20439;-71
2023/03/23 12:01:21;;;;;;;3.10;2.47;;;19.20;98.50;;;;;;4992188;28;20820;-71
2023/03/23 12:04:11;;;;;;;2.90;2.70;;;19.00;96.40;;;;;;4992288;28;20171;-72
2023/03/23 12:07:03;;;;;;;3.87;2.90;;;18.70;98.20;;;;;;4986025;28;20426;-71
2023/03/23 12:09:42;;;;;;;3.37;3.17;;;18.50;98.70;;;;;;4992393;28;20955;-71
2023/03/23 12:12:30;;;;;;;2.93;2.67;;;18.40;98.80;;;;;;4989772;28;20457;-71
2023/03/23 12:15:17;;;;;;;2.67;2.47;;;18.50;98.90;;;;;;4992500;28;20423;-70
2023/03/23 12:18:09;;;;;;;2.37;2.07;;;18.60;98.30;;;;;;4971808;28;20438;-69
2023/03/23 12:20:58;;;;;;;2.73;2.53;;;18.50;97.90;;;;;;4990017;28;20465;-70
2023/03/23 12:23:45;;;;;;;3.77;3.47;;;18.40;98.10;;;;;;4988825;28;20446;-70
2023/03/23 12:26:21;;;;;;;3.03;2.43;;;18.50;98.40;;;;;;4992268;28;20822;-70
2023/03/23 12:29:02;;;;;;;3.03;2.33;;;18.70;97.60;;;;;;4995606;28;20487;-70
2023/03/23 12:31:47;;;;;;;2.90;2.70;;;18.70;98.70;;;;;;4996811;28;21026;-70
2023/03/23 12:34:22;;;;;;;3.10;2.90;;;18.70;98.20;;;;;;4995284;28;20461;-70
2023/03/23 12:37:18;;;;;;;4.50;3.60;;;18.50;98.00;;;;;;4993545;28;20434;-69
2023/03/23 12:39:56;;;;;;;2.50;2.30;;;18.40;98.80;;;;;;4994990;28;20477;-70
2023/03/23 12:42:37;;;;;;;3.37;3.07;;;18.60;98.20;;;;;;4994189;28;20959;-70
2023/03/23 12:45:19;;;;;;;3.10;2.90;;;19.00;97.30;;;;;;4994517;28;20438;-70
2023/03/23 12:48:09;;;;;;;3.87;2.83;;;19.40;95.80;;;;;;4995276;28;20546;-70
2023/03/23 12:50:45;;;;;;;2.80;2.50;;;20.30;94.30;;;;;;4995049;28;20480;-70
2023/03/23 12:53:21;;;;;;;3.03;2.80;;;20.60;93.10;;;;;;4998044;28;20971;-70
2023/03/23 12:55:50;;;;;;;3.40;2.90;;;20.50;92.60;;;;;;4998258;28;20774;-69
2023/03/23 12:58:20;;;;;;;2.83;2.63;;;20.60;92.40;;;;;;4994684;28;20426;-69
2023/03/23 13:01:04;;;;;;;3.00;2.77;;;20.50;91.50;;;;;;4995152;28;20450;-70
2023/03/23 13:03:42;;;;;;;2.83;2.63;;;20.10;92.60;;;;;;4995166;28;20772;-70
2023/03/23 13:06:32;;;;;;;2.87;2.53;;;19.90;93.00;;;;;;4992337;28;20474;-70